createdAt,value
2018-05-08T00:00:36.996Z,55.70
2018-05-08T00:03:05.290Z,56.00
2018-05-08T00:05:32.802Z,56.00
2018-05-08T00:08:00.326Z,56.40
2018-05-08T00:10:28.625Z,56.20
2018-05-08T00:12:56.146Z,56.80
2018-05-08T00:15:24.434Z,56.70
2018-05-08T00:17:52.715Z,56.40
2018-05-08T00:20:20.989Z,56.20
2018-05-08T00:22:49.277Z,56.20
2018-05-08T00:25:16.797Z,56.20
2018-05-08T00:27:44.309Z,56.10
2018-05-08T00:30:11.829Z,56.30
2018-05-08T00:32:39.341Z,56.40
2018-05-08T00:35:06.850Z,56.50
2018-05-08T00:37:35.133Z,57.00
2018-05-08T00:40:03.406Z,57.00
2018-05-08T00:42:31.682Z,57.10
2018-05-08T00:44:59.966Z,57.30
2018-05-08T00:47:28.242Z,57.40
2018-05-08T00:49:56.529Z,57.50
2018-05-08T00:52:24.037Z,57.50
2018-05-08T00:55:03.375Z,57.70
2018-05-08T00:57:30.889Z,57.80
2018-05-08T00:59:58.405Z,57.80
2018-05-08T01:02:26.693Z,58.80
2018-05-08T01:04:55.022Z,58.10
2018-05-08T01:07:23.279Z,58.20
2018-05-08T01:09:50.804Z,58.10
2018-05-08T01:12:19.098Z,58.20
2018-05-08T01:14:46.621Z,58.10
2018-05-08T01:17:14.905Z,58.30
2018-05-08T01:19:42.415Z,58.30
2018-05-08T01:22:10.016Z,58.40
2018-05-08T01:24:38.217Z,58.30
2018-05-08T01:27:06.502Z,58.40
2018-05-08T01:29:34.791Z,58.50
2018-05-08T01:32:02.301Z,58.50
2018-05-08T01:34:29.813Z,58.60
2018-05-08T01:36:57.325Z,58.70
2018-05-08T01:39:24.846Z,59.00
2018-05-08T01:41:52.424Z,59.20
2018-05-08T01:44:20.645Z,60.10
2018-05-08T01:46:48.917Z,60.50
2018-05-08T01:49:17.196Z,60.60
2018-05-08T01:51:45.482Z,60.80
2018-05-08T01:54:13.758Z,60.90
2018-05-08T01:56:41.266Z,60.90
2018-05-08T01:59:08.787Z,60.90
2018-05-08T02:01:36.305Z,60.90
2018-05-08T02:04:03.817Z,60.70
2018-05-08T02:06:31.335Z,60.80
2018-05-08T02:08:59.622Z,60.80
2018-05-08T02:11:27.901Z,60.90
2018-05-08T02:13:56.185Z,61.00
2018-05-08T02:16:23.707Z,61.00
2018-05-08T02:18:51.235Z,60.80
2018-05-08T02:21:18.754Z,60.70
2018-05-08T02:23:47.029Z,60.60
2018-05-08T02:26:15.306Z,60.50
2018-05-08T02:28:43.582Z,60.40
2018-05-08T02:31:11.871Z,60.30
2018-05-08T02:33:39.382Z,60.10
2018-05-08T02:36:07.674Z,60.80
2018-05-08T02:38:35.194Z,60.80
2018-05-08T02:41:02.707Z,61.20
2018-05-08T02:43:30.973Z,62.00
2018-05-08T02:45:59.262Z,62.10
2018-05-08T02:48:27.549Z,62.50
2018-05-08T02:50:55.070Z,62.40
2018-05-08T02:53:22.581Z,62.50
2018-05-08T02:55:50.102Z,62.60
2018-05-08T02:58:18.390Z,62.90
2018-05-08T03:00:46.674Z,63.30
2018-05-08T03:03:14.194Z,63.30
2018-05-08T03:05:41.712Z,63.30
2018-05-08T03:08:09.233Z,63.30
2018-05-08T03:10:37.525Z,63.40
2018-05-08T03:13:05.048Z,63.40
2018-05-08T03:15:32.577Z,63.20
2018-05-08T03:18:00.086Z,63.00
2018-05-08T03:20:28.387Z,63.00
2018-05-08T03:22:55.905Z,63.00
2018-05-08T03:25:23.420Z,62.80
2018-05-08T03:27:50.937Z,62.70
2018-05-08T03:30:19.213Z,62.40
2018-05-08T03:32:47.497Z,62.20
2018-05-08T03:35:15.778Z,62.20
2018-05-08T03:37:44.053Z,61.90
2018-05-08T03:40:12.333Z,62.00
2018-05-08T03:42:40.616Z,62.20
2018-05-08T03:45:08.128Z,62.10
2018-05-08T03:47:35.647Z,62.40
2018-05-08T03:50:03.161Z,62.60
2018-05-08T03:52:30.677Z,62.60
2018-05-08T03:54:58.197Z,62.90
2018-05-08T03:57:26.476Z,63.10
2018-05-08T03:59:54.002Z,63.10
2018-05-08T04:02:33.358Z,63.30
2018-05-08T04:05:13.389Z,63.40
2018-05-08T04:07:52.702Z,63.40
2018-05-08T04:10:20.205Z,63.50
2018-05-08T04:12:48.496Z,64.00
2018-05-08T04:15:16.770Z,64.20
2018-05-08T04:17:45.049Z,64.50
2018-05-08T04:20:12.566Z,64.50
2018-05-08T04:22:40.085Z,64.70
2018-05-08T04:25:07.607Z,64.30
2018-05-08T04:27:35.890Z,64.70
2018-05-08T04:30:04.166Z,64.90
2018-05-08T04:32:32.461Z,64.70
2018-05-08T04:34:59.970Z,64.70
2018-05-08T04:37:27.481Z,64.70
2018-05-08T04:39:54.997Z,65.10
2018-05-08T04:42:22.513Z,66.10
2018-05-08T04:44:50.030Z,65.70
2018-05-08T04:47:18.345Z,66.50
2018-05-08T04:49:45.849Z,65.60
2018-05-08T04:52:13.370Z,65.10
2018-05-08T04:54:40.886Z,64.50
2018-05-08T04:57:09.182Z,65.00
2018-05-08T04:59:36.694Z,64.90
2018-05-08T05:02:04.227Z,65.10
2018-05-08T05:04:31.760Z,65.50
2018-05-08T05:06:59.305Z,65.90
2018-05-08T05:09:26.803Z,66.20
2018-05-08T05:11:54.349Z,65.60
2018-05-08T05:14:21.871Z,65.10
2018-05-08T05:16:49.418Z,63.00
2018-05-08T05:19:16.913Z,61.60
2018-05-08T05:21:44.422Z,60.10
2018-05-08T05:24:11.925Z,58.10
2018-05-08T05:26:40.201Z,57.20
2018-05-08T05:29:07.726Z,57.20
2018-05-08T05:31:35.289Z,57.10
2018-05-08T05:34:02.795Z,56.70
2018-05-08T05:36:30.328Z,56.50
2018-05-08T05:38:58.603Z,56.00
2018-05-08T05:41:26.902Z,55.90
2018-05-08T05:43:54.410Z,55.80
2018-05-08T05:46:21.927Z,55.40
2018-05-08T05:48:49.450Z,55.10
2018-05-08T05:51:17.737Z,55.00
2018-05-08T05:53:46.014Z,53.90
2018-05-08T05:56:14.293Z,53.70
2018-05-08T05:58:42.578Z,53.70
2018-05-08T06:01:10.095Z,53.70
2018-05-08T06:03:37.787Z,53.70
2018-05-08T06:06:06.067Z,53.20
2018-05-08T06:08:34.342Z,53.20
2018-05-08T06:11:02.622Z,53.30
2018-05-08T06:13:30.902Z,53.60
2018-05-08T06:15:58.418Z,53.50
2018-05-08T06:18:25.934Z,53.50
2018-05-08T06:20:53.457Z,53.10
2018-05-08T06:23:21.734Z,53.40
2018-05-08T06:25:50.006Z,53.40
2018-05-08T06:28:17.514Z,53.30
2018-05-08T06:30:45.031Z,52.80
2018-05-08T06:33:13.301Z,52.10
2018-05-08T06:35:41.582Z,51.70
2018-05-08T06:38:09.869Z,51.70
2018-05-08T06:40:38.154Z,52.30
2018-05-08T06:43:05.674Z,52.20
2018-05-08T06:45:33.189Z,52.90
2018-05-08T06:48:00.710Z,52.90
2018-05-08T06:50:28.995Z,52.40
2018-05-08T06:52:57.286Z,52.40
2018-05-08T06:55:24.991Z,52.40
2018-05-08T06:57:52.501Z,51.10
2018-05-08T07:00:21.290Z,51.30
2018-05-08T07:02:48.813Z,51.30
2018-05-08T07:05:16.330Z,51.10
2018-05-08T07:07:45.224Z,51.10
2018-05-08T07:10:12.749Z,50.50
2018-05-08T07:12:41.030Z,51.50
2018-05-08T07:15:09.306Z,51.10
2018-05-08T07:17:37.598Z,50.80
2018-05-08T07:20:05.102Z,51.50
2018-05-08T07:22:32.617Z,50.50
2018-05-08T07:25:00.136Z,50.10
2018-05-08T07:27:27.654Z,50.20
2018-05-08T07:29:55.183Z,50.60
2018-05-08T07:32:22.701Z,50.60
2018-05-08T07:34:50.223Z,49.40
2018-05-08T07:37:17.733Z,49.10
2018-05-08T07:39:46.026Z,48.90
2018-05-08T07:42:14.305Z,48.60
2018-05-08T07:44:42.589Z,48.90
2018-05-08T07:47:10.094Z,48.90
2018-05-08T07:49:37.615Z,48.80
2018-05-08T07:52:05.128Z,48.80
2018-05-08T07:54:32.645Z,48.70
2018-05-08T07:57:00.166Z,48.70
2018-05-08T07:59:28.438Z,48.30
2018-05-08T08:01:56.722Z,48.70
2018-05-08T08:04:25.028Z,48.70
2018-05-08T08:06:52.554Z,48.60
2018-05-08T08:09:20.844Z,49.80
2018-05-08T08:11:49.121Z,49.30
2018-05-08T08:14:17.394Z,48.90
2018-05-08T08:16:45.674Z,48.90
2018-05-08T08:19:13.193Z,48.90
2018-05-08T08:21:40.714Z,48.60
2018-05-08T08:24:08.230Z,48.50
2018-05-08T08:26:35.734Z,48.00
2018-05-08T08:29:03.249Z,48.00
2018-05-08T08:31:31.530Z,49.40
2018-05-08T08:33:59.858Z,49.30
2018-05-08T08:36:28.101Z,49.70
2018-05-08T08:38:55.617Z,49.50
2018-05-08T08:41:23.146Z,49.30
2018-05-08T08:43:50.658Z,49.80
2018-05-08T08:46:18.940Z,50.50
2018-05-08T08:48:47.226Z,50.30
2018-05-08T08:51:15.498Z,51.10
2018-05-08T08:53:43.790Z,51.80
2018-05-08T08:56:11.306Z,51.80
2018-05-08T08:58:40.328Z,51.40
2018-05-08T09:01:08.617Z,51.40
2018-05-08T09:03:36.139Z,51.30
2018-05-08T09:06:03.657Z,51.10
2018-05-08T09:08:31.170Z,50.50
2018-05-08T09:10:59.454Z,50.70
2018-05-08T09:13:27.735Z,48.70
2018-05-08T09:15:56.018Z,48.30
2018-05-08T09:18:23.532Z,48.30
2018-05-08T09:20:51.558Z,47.20
2018-05-08T09:23:19.083Z,47.40
2018-05-08T09:25:46.610Z,48.10
2018-05-08T09:28:14.122Z,49.60
2018-05-08T09:30:42.400Z,49.20
2018-05-08T09:33:09.927Z,49.20
2018-05-08T09:35:37.445Z,51.20
2018-05-08T09:38:04.958Z,51.60
2018-05-08T09:40:33.230Z,50.30
2018-05-08T09:43:00.743Z,50.30
2018-05-08T09:45:28.257Z,49.10
2018-05-08T09:47:56.532Z,47.40
2018-05-08T09:50:24.813Z,46.90
2018-05-08T09:52:53.091Z,47.90
2018-05-08T09:55:21.362Z,46.50
2018-05-08T09:57:49.638Z,46.20
2018-05-08T10:00:17.905Z,44.40
2018-05-08T10:02:46.195Z,44.80
2018-05-08T10:05:14.473Z,44.30
2018-05-08T10:07:42.750Z,46.60
2018-05-08T10:10:11.034Z,47.60
2018-05-08T10:12:38.546Z,47.60
2018-05-08T10:15:06.062Z,46.10
2018-05-08T10:17:33.578Z,45.90
2018-05-08T10:20:01.102Z,45.30
2018-05-08T10:22:28.615Z,45.10
2018-05-08T10:24:56.899Z,43.80
2018-05-08T10:27:25.177Z,43.50
2018-05-08T10:29:53.470Z,45.10
2018-05-08T10:32:20.982Z,45.00
2018-05-08T10:34:48.511Z,45.50
2018-05-08T10:37:16.013Z,44.00
2018-05-08T10:39:44.293Z,42.30
2018-05-08T10:42:13.529Z,42.30
2018-05-08T10:44:41.193Z,42.30
2018-05-08T10:47:08.810Z,42.40
2018-05-08T10:49:37.087Z,42.60
2018-05-08T10:52:05.365Z,42.60
2018-05-08T10:54:33.646Z,42.10
2018-05-08T10:57:01.928Z,43.70
2018-05-08T10:59:30.206Z,45.40
2018-05-08T11:01:58.486Z,46.00
2018-05-08T11:04:26.765Z,45.00
2018-05-08T11:06:54.281Z,45.00
2018-05-08T11:09:21.798Z,43.90
2018-05-08T11:11:49.310Z,43.50
2018-05-08T11:14:16.830Z,43.20
2018-05-08T11:16:44.349Z,41.10
2018-05-08T11:19:12.622Z,41.40
2018-05-08T11:21:40.903Z,42.30
2018-05-08T11:24:09.181Z,43.80
2018-05-08T11:26:37.502Z,44.80
2018-05-08T11:29:04.992Z,44.70
2018-05-08T11:31:32.514Z,42.00
2018-05-08T11:34:00.034Z,41.30
2018-05-08T11:36:28.317Z,41.40
2018-05-08T11:38:55.854Z,41.40
2018-05-08T11:41:24.133Z,41.90
2018-05-08T11:43:52.402Z,42.70
2018-05-08T11:46:19.914Z,42.60
2018-05-08T11:48:47.418Z,43.60
2018-05-08T11:51:14.930Z,44.50
2018-05-08T11:53:42.438Z,43.30
2018-05-08T11:56:09.962Z,40.90
2018-05-08T11:58:37.473Z,41.60
2018-05-08T12:01:05.773Z,42.90
2018-05-08T12:03:33.282Z,42.90
2018-05-08T12:06:00.829Z,40.90
2018-05-08T12:08:29.109Z,38.20
2018-05-08T12:10:56.625Z,38.70
2018-05-08T12:13:24.146Z,38.30
2018-05-08T12:15:52.434Z,39.70
2018-05-08T12:18:20.713Z,38.50
2018-05-08T12:20:48.985Z,40.00
2018-05-08T12:23:17.265Z,39.50
2018-05-08T12:25:45.539Z,39.10
2018-05-08T12:28:13.822Z,39.40
2018-05-08T12:30:42.124Z,38.50
2018-05-08T12:33:09.631Z,38.50
2018-05-08T12:35:37.136Z,37.10
2018-05-08T12:38:04.654Z,36.90
2018-05-08T12:40:32.260Z,36.90
2018-05-08T12:42:59.773Z,35.60
2018-05-08T12:45:28.074Z,36.40
2018-05-08T12:47:55.582Z,36.40
2018-05-08T12:50:23.180Z,36.80
2018-05-08T12:52:50.614Z,36.10
2018-05-08T12:55:18.126Z,35.50
2018-05-08T12:57:45.645Z,34.30
2018-05-08T13:00:13.922Z,33.90
2018-05-08T13:02:42.197Z,33.10
2018-05-08T13:05:10.477Z,32.10
2018-05-08T13:07:38.762Z,34.90
2018-05-08T13:10:07.040Z,33.90
2018-05-08T13:12:35.322Z,33.20
2018-05-08T13:15:03.594Z,34.50
2018-05-08T13:17:31.877Z,33.50
2018-05-08T13:19:59.386Z,33.50
2018-05-08T13:22:26.894Z,36.00
2018-05-08T13:24:54.414Z,32.20
2018-05-08T13:27:23.426Z,32.50
2018-05-08T13:29:51.709Z,31.30
2018-05-08T13:32:19.989Z,30.30
2018-05-08T13:34:48.270Z,30.40
2018-05-08T13:37:16.557Z,30.30
2018-05-08T13:39:44.070Z,30.30
2018-05-08T13:42:11.574Z,30.50
2018-05-08T13:44:39.086Z,30.30
2018-05-08T13:47:06.606Z,29.40
2018-05-08T13:49:34.123Z,29.40
2018-05-08T13:52:01.648Z,29.00
2018-05-08T13:54:29.165Z,31.00
2018-05-08T13:56:56.691Z,30.20
2018-05-08T13:59:24.207Z,30.80
2018-05-08T14:01:51.734Z,31.20
2018-05-08T14:04:20.014Z,29.80
2018-05-08T14:06:48.385Z,31.90
2018-05-08T14:09:15.821Z,31.90
2018-05-08T14:11:44.189Z,32.00
2018-05-08T14:14:11.774Z,31.90
2018-05-08T14:16:40.046Z,32.00
2018-05-08T14:19:08.363Z,31.50
2018-05-08T14:21:36.611Z,32.80
2018-05-08T14:24:04.898Z,34.20
2018-05-08T14:26:32.418Z,34.20
2018-05-08T14:28:59.946Z,35.10
2018-05-08T14:31:27.535Z,35.20
2018-05-08T14:33:55.064Z,35.80
2018-05-08T14:36:22.593Z,35.70
2018-05-08T14:38:50.101Z,36.80
2018-05-08T14:41:17.651Z,39.10
2018-05-08T14:43:45.246Z,39.50
2018-05-08T14:46:12.681Z,39.90
2018-05-08T14:48:40.199Z,39.90
2018-05-08T14:51:07.735Z,39.60
2018-05-08T14:53:36.026Z,41.00
2018-05-08T14:56:03.543Z,41.00
2018-05-08T14:58:31.066Z,42.20
2018-05-08T15:00:59.338Z,44.10
2018-05-08T15:03:26.853Z,44.00
2018-05-08T15:05:55.129Z,44.60
2018-05-08T15:08:22.645Z,44.00
2018-05-08T15:10:50.153Z,46.40
2018-05-08T15:13:18.426Z,45.70
2018-05-08T15:15:46.705Z,46.60
2018-05-08T15:18:14.974Z,46.60
2018-05-08T15:20:43.267Z,47.80
2018-05-08T15:23:11.539Z,48.40
2018-05-08T15:25:39.849Z,47.40
2018-05-08T15:28:07.354Z,47.40
2018-05-08T15:30:34.862Z,48.10
2018-05-08T15:33:02.366Z,47.60
2018-05-08T15:35:30.638Z,46.30
2018-05-08T15:37:58.914Z,47.20
2018-05-08T15:40:26.418Z,47.20
2018-05-08T15:42:53.943Z,45.00
2018-05-08T15:45:21.449Z,44.40
2018-05-08T15:47:48.971Z,44.00
2018-05-08T15:50:17.241Z,44.90
2018-05-08T15:52:45.531Z,45.60
2018-05-08T15:55:13.881Z,45.60
2018-05-08T15:57:41.362Z,45.60
2018-05-08T16:00:09.645Z,45.90
2018-05-08T16:02:37.925Z,46.40
2018-05-08T16:05:06.210Z,46.80
2018-05-08T16:07:33.736Z,46.80
2018-05-08T16:10:01.249Z,46.80
2018-05-08T16:12:28.762Z,47.40
2018-05-08T16:14:57.056Z,46.10
2018-05-08T16:17:25.327Z,45.40
2018-05-08T16:19:53.610Z,44.90
2018-05-08T16:22:21.886Z,44.60
2018-05-08T16:24:50.154Z,44.80
2018-05-08T16:27:18.450Z,45.80
2018-05-08T16:29:45.964Z,45.80
2018-05-08T16:32:13.476Z,45.50
2018-05-08T16:34:40.997Z,45.30
2018-05-08T16:37:09.294Z,47.60
2018-05-08T16:39:37.574Z,48.10
2018-05-08T16:42:05.091Z,48.10
2018-05-08T16:44:34.101Z,48.60
2018-05-08T16:47:02.390Z,48.20
2018-05-08T16:49:30.663Z,48.90
2018-05-08T16:51:58.941Z,48.40
2018-05-08T16:54:27.225Z,48.60
2018-05-08T16:56:55.505Z,48.50
2018-05-08T16:59:23.777Z,48.90
2018-05-08T17:01:52.059Z,49.40
2018-05-08T17:04:20.343Z,49.90
2018-05-08T17:06:47.851Z,49.90
2018-05-08T17:09:15.372Z,50.30
2018-05-08T17:11:42.882Z,50.20
2018-05-08T17:14:10.394Z,50.80
2018-05-08T17:16:37.898Z,51.60
2018-05-08T17:19:05.468Z,52.10
2018-05-08T17:21:32.942Z,52.50
2018-05-08T17:24:01.431Z,52.90
2018-05-08T17:26:28.961Z,52.90
2018-05-08T17:28:56.469Z,53.30
2018-05-08T17:31:24.001Z,53.90
2018-05-08T17:33:52.277Z,54.40
2018-05-08T17:36:20.562Z,54.60
2018-05-08T17:38:48.069Z,54.60
2018-05-08T17:41:15.587Z,54.80
2018-05-08T17:43:43.089Z,54.70
2018-05-08T17:46:10.597Z,55.40
2018-05-08T17:48:38.107Z,56.20
2018-05-08T17:51:05.625Z,57.20
2018-05-08T17:53:33.150Z,59.60
2018-05-08T17:56:01.421Z,59.80
2018-05-08T17:58:29.702Z,60.50
2018-05-08T18:00:57.969Z,60.90
2018-05-08T18:03:25.471Z,60.90
2018-05-08T18:05:52.986Z,60.90
2018-05-08T18:08:21.270Z,60.60
2018-05-08T18:10:49.566Z,61.40
2018-05-08T18:13:17.082Z,61.40
2018-05-08T18:15:44.595Z,63.40
2018-05-08T18:18:12.117Z,66.10
2018-05-08T18:20:40.408Z,68.80
2018-05-08T18:23:08.694Z,69.00
2018-05-08T18:25:36.605Z,69.80
2018-05-08T18:28:04.394Z,54.30
2018-05-08T18:30:31.461Z,54.30
2018-05-08T18:32:59.286Z,65.80
2018-05-08T18:35:26.354Z,65.80
2018-05-08T18:37:53.874Z,66.90
2018-05-08T18:40:21.399Z,68.70
2018-05-08T18:42:49.677Z,72.10
2018-05-08T18:45:17.970Z,72.30
2018-05-08T18:47:45.491Z,72.30
2018-05-08T18:50:13.790Z,71.50
2018-05-08T18:52:41.349Z,71.30
2018-05-08T18:55:08.870Z,74.00
2018-05-08T18:57:36.409Z,75.30
2018-05-08T19:00:09.519Z,76.50
2018-05-08T19:02:37.047Z,77.30
2018-05-08T19:05:04.578Z,77.50
2018-05-08T19:07:32.097Z,77.30
2018-05-08T19:09:59.633Z,76.70
2018-05-08T19:12:27.168Z,76.20
2018-05-08T19:15:00.323Z,76.20
2018-05-08T19:17:28.612Z,75.90
2018-05-08T19:20:08.234Z,75.80
2018-05-08T19:22:35.840Z,75.60
2018-05-08T19:25:03.550Z,75.50
2018-05-08T19:27:31.249Z,75.30
2018-05-08T19:30:04.322Z,75.00
2018-05-08T19:32:32.605Z,75.30
2018-05-08T19:35:06.710Z,75.20
2018-05-08T19:37:40.735Z,75.50
2018-05-08T19:40:09.017Z,74.30
2018-05-08T19:42:37.293Z,74.30
2018-05-08T19:45:04.831Z,74.10
2018-05-08T19:47:32.342Z,74.30
2018-05-08T19:49:59.892Z,74.10
2018-05-08T19:52:27.464Z,74.50
2018-05-08T19:54:55.709Z,74.40
2018-05-08T19:57:23.225Z,74.30
2018-05-08T19:59:50.746Z,74.50
2018-05-08T20:02:18.262Z,75.20
2018-05-08T20:04:45.774Z,75.40
2018-05-08T20:07:13.285Z,76.00
2018-05-08T20:09:41.577Z,77.80
2018-05-08T20:12:09.852Z,78.20
2018-05-08T20:14:38.129Z,79.30
2018-05-08T20:17:06.406Z,80.40
2018-05-08T20:19:33.930Z,80.40
2018-05-08T20:22:01.443Z,81.10
2018-05-08T20:24:28.962Z,82.00
2018-05-08T20:26:57.251Z,83.10
2018-05-08T20:29:25.526Z,83.60
2018-05-08T20:31:53.802Z,83.40
2018-05-08T20:34:22.074Z,82.90
2018-05-08T20:36:50.362Z,82.20
2018-05-08T20:39:18.634Z,81.80
2018-05-08T20:41:46.925Z,81.40
2018-05-08T20:44:14.441Z,81.40
2018-05-08T20:46:41.952Z,81.20
2018-05-08T20:49:09.518Z,80.90
2018-05-08T20:51:37.770Z,79.70
2018-05-08T20:54:05.282Z,79.60
2018-05-08T20:56:32.818Z,81.40
2018-05-08T20:59:00.346Z,82.80
2018-05-08T21:01:27.862Z,85.00
2018-05-08T21:03:55.385Z,85.70
2018-05-08T21:06:22.894Z,85.80
2018-05-08T21:08:50.425Z,86.50
2018-05-08T21:11:17.934Z,86.90
2018-05-08T21:13:46.210Z,86.50
2018-05-08T21:16:14.499Z,86.10
2018-05-08T21:18:42.014Z,86.00
2018-05-08T21:21:09.536Z,85.60
2018-05-08T21:23:37.046Z,85.10
2018-05-08T21:26:05.337Z,84.00
2018-05-08T21:28:39.306Z,84.10
2018-05-08T21:31:12.505Z,84.10
2018-05-08T21:33:40.022Z,83.90
2018-05-08T21:36:07.541Z,83.40
2018-05-08T21:38:35.061Z,82.80
2018-05-08T21:41:02.570Z,82.50
2018-05-08T21:43:30.849Z,82.00
2018-05-08T21:45:59.147Z,81.80
2018-05-08T21:48:26.702Z,81.80
2018-05-08T21:50:54.186Z,81.30
2018-05-08T21:53:21.706Z,81.10
2018-05-08T21:55:49.981Z,81.00
2018-05-08T21:58:18.272Z,81.50
2018-05-08T22:00:45.789Z,81.50
2018-05-08T22:03:13.300Z,81.50
2018-05-08T22:05:40.819Z,81.30
2018-05-08T22:08:09.094Z,81.50
2018-05-08T22:10:36.616Z,81.10
2018-05-08T22:13:04.125Z,81.10
2018-05-08T22:15:32.405Z,80.70
2018-05-08T22:18:00.681Z,80.20
2018-05-08T22:20:28.970Z,79.70
2018-05-08T22:22:56.477Z,79.70
2018-05-08T22:25:24.001Z,79.30
2018-05-08T22:27:51.522Z,79.40
2018-05-08T22:30:19.798Z,79.70
2018-05-08T22:32:48.078Z,79.80
2018-05-08T22:35:16.358Z,80.40
2018-05-08T22:37:44.634Z,80.90
2018-05-08T22:40:12.910Z,81.10
2018-05-08T22:42:41.194Z,81.00
2018-05-08T22:45:09.479Z,80.50
2018-05-08T22:47:36.982Z,80.50
2018-05-08T22:50:04.504Z,80.00
2018-05-08T22:52:32.034Z,79.70
2018-05-08T22:55:00.318Z,79.80
2018-05-08T22:57:28.602Z,79.60
2018-05-08T22:59:57.023Z,79.70
2018-05-08T23:02:24.534Z,79.70
2018-05-08T23:04:52.817Z,79.40
2018-05-08T23:07:21.101Z,79.10
2018-05-08T23:09:48.644Z,79.10
2018-05-08T23:12:16.147Z,78.90
2018-05-08T23:14:43.661Z,79.60
2018-05-08T23:17:11.937Z,78.60
2018-05-08T23:19:40.225Z,78.60
2018-05-08T23:22:07.739Z,78.60
2018-05-08T23:24:35.251Z,78.70
2018-05-08T23:27:02.757Z,78.90
2018-05-08T23:29:30.282Z,79.10
2018-05-08T23:31:57.841Z,79.10
2018-05-08T23:34:25.383Z,79.10
2018-05-08T23:36:52.889Z,79.00
2018-05-08T23:39:20.637Z,78.60
2018-05-08T23:41:48.155Z,78.60
2018-05-08T23:44:15.670Z,78.50
2018-05-08T23:46:43.192Z,78.90
2018-05-08T23:49:10.701Z,79.20
2018-05-08T23:51:38.218Z,79.30
2018-05-08T23:54:05.729Z,79.20
2018-05-08T23:56:34.006Z,79.50
2018-05-08T23:59:01.526Z,78.80
